Time;durP1;ratioP1;P1;durP2;ratioP2;P2;SDS_P1;SDS_P2;PMS_P1;PMS_P2;Temp;Humidity;BMP_temperature;BMP_pressure;BME280_temperature;BME280_humidity;BME280_pressure;Samples;Min_cycle;Max_cycle;Signal;HPM_P1;HPM_P2
2022/11/07 00:01:58;;;;;;;7.63;4.93;;;8.30;99.90;;;;;;5092729;28;20457;-68
2022/11/07 00:04:27;;;;;;;4.60;4.20;;;8.30;99.90;;;;;;5091939;28;20459;-67
2022/11/07 00:06:54;;;;;;;6.03;4.43;;;8.30;99.90;;;;;;5109762;28;20444;-67
2022/11/07 00:09:22;;;;;;;9.40;5.30;;;8.40;99.90;;;;;;5112481;28;20456;-68
2022/11/07 00:11:49;;;;;;;7.57;5.07;;;8.40;99.90;;;;;;5106010;28;20452;-68
2022/11/07 00:14:16;;;;;;;7.77;4.57;;;8.40;99.90;;;;;;5112423;28;20502;-67
2022/11/07 00:16:44;;;;;;;6.87;4.90;;;8.40;99.90;;;;;;5093817;28;20489;-67
2022/11/07 00:19:13;;;;;;;7.17;4.60;;;8.40;99.90;;;;;;5111021;28;20971;-68
2022/11/07 00:21:40;;;;;;;6.40;4.97;;;8.40;99.90;;;;;;5095333;28;20464;-67
2022/11/07 00:24:08;;;;;;;7.30;4.87;;;8.40;99.90;;;;;;5091775;28;20870;-67
2022/11/07 00:26:37;;;;;;;7.27;5.57;;;8.40;99.90;;;;;;5097112;28;20807;-67
2022/11/07 00:29:04;;;;;;;9.27;5.77;;;8.40;99.90;;;;;;5090421;28;20458;-68
2022/11/07 00:31:30;;;;;;;10.37;5.70;;;8.40;99.90;;;;;;5097456;28;20941;-67
2022/11/07 00:33:58;;;;;;;7.57;5.50;;;8.40;99.90;;;;;;5111929;28;20477;-67
2022/11/07 00:36:27;;;;;;;11.90;5.77;;;8.40;99.90;;;;;;5102504;28;20474;-68
2022/11/07 00:38:54;;;;;;;10.60;6.23;;;8.40;99.90;;;;;;5111600;28;20450;-67
2022/11/07 00:41:21;;;;;;;6.10;5.37;;;8.40;99.90;;;;;;5103781;28;20938;-67
2022/11/07 00:43:49;;;;;;;7.53;5.20;;;8.40;99.90;;;;;;5095724;28;20471;-67
2022/11/07 00:46:18;;;;;;;5.40;4.90;;;8.40;99.90;;;;;;5101499;28;20446;-67
2022/11/07 00:48:45;;;;;;;7.77;5.10;;;8.40;99.90;;;;;;5095562;28;20459;-68
2022/11/07 00:51:15;;;;;;;7.07;5.00;;;8.40;99.90;;;;;;5094817;28;20451;-68
2022/11/07 00:53:42;;;;;;;8.23;5.13;;;8.40;99.90;;;;;;5095646;28;20469;-67
2022/11/07 00:56:11;;;;;;;7.80;5.00;;;8.40;99.90;;;;;;5095064;28;20489;-67
2022/11/07 00:58:38;;;;;;;6.97;5.27;;;8.40;99.90;;;;;;5095596;28;20476;-67
2022/11/07 01:01:09;;;;;;;7.67;5.00;;;8.40;99.90;;;;;;5106143;28;20825;-67
2022/11/07 01:06:20;;;;;;;5.83;4.90;;;8.40;99.90;;;;;;5113670;28;21287;-67
2022/11/07 01:08:47;;;;;;;6.50;5.33;;;8.40;99.90;;;;;;5109487;28;20454;-67
2022/11/07 01:11:14;;;;;;;9.20;5.20;;;8.40;99.90;;;;;;5106456;28;20611;-67
2022/11/07 01:13:41;;;;;;;8.17;4.97;;;8.30;99.90;;;;;;5094221;28;20473;-67
2022/11/07 01:16:10;;;;;;;7.07;5.13;;;8.40;99.90;;;;;;5104725;28;20484;-68
2022/11/07 01:18:37;;;;;;;9.90;4.60;;;8.40;99.90;;;;;;5112078;28;20451;-68
2022/11/07 01:21:04;;;;;;;7.83;5.53;;;8.50;99.90;;;;;;5115408;28;20450;-68
2022/11/07 01:23:31;;;;;;;14.10;5.43;;;8.50;99.90;;;;;;5100612;28;20482;-67
2022/11/07 01:25:58;;;;;;;9.53;5.37;;;8.50;99.90;;;;;;5094841;28;20453;-68
2022/11/07 01:28:24;;;;;;;7.40;6.00;;;8.50;99.90;;;;;;5095032;28;20960;-67
2022/11/07 01:30:51;;;;;;;7.30;5.60;;;8.50;99.90;;;;;;5094991;28;20800;-67
2022/11/07 01:33:19;;;;;;;10.30;5.90;;;8.50;99.90;;;;;;5093803;28;20491;-68
2022/11/07 01:35:46;;;;;;;6.30;5.70;;;8.60;99.90;;;;;;5094724;28;20489;-68
2022/11/07 01:38:12;;;;;;;8.90;5.40;;;8.60;99.90;;;;;;5094427;28;20462;-68
2022/11/07 01:43:40;;;;;;;10.57;5.77;;;8.60;99.90;;;;;;5098485;28;20486;-68
2022/11/07 01:46:07;;;;;;;8.07;6.17;;;8.60;99.90;;;;;;5104126;28;20450;-68
2022/11/07 01:48:35;;;;;;;10.33;6.20;;;8.70;99.90;;;;;;5111911;28;20511;-67
2022/11/07 01:51:02;;;;;;;10.63;6.00;;;8.70;99.90;;;;;;5114453;28;20905;-67
2022/11/07 01:53:29;;;;;;;7.63;6.17;;;8.70;99.90;;;;;;5107198;28;21009;-68
2022/11/07 01:55:55;;;;;;;9.67;5.80;;;8.70;99.90;;;;;;5094300;28;20540;-68
2022/11/07 01:58:22;;;;;;;9.77;6.33;;;8.70;99.90;;;;;;5100125;28;20493;-68
2022/11/07 02:00:49;;;;;;;9.40;5.60;;;8.70;99.90;;;;;;5109100;28;20452;-68
2022/11/07 02:03:19;;;;;;;10.77;6.30;;;8.70;99.90;;;;;;5102015;28;20529;-67
2022/11/07 02:05:52;;;;;;;8.30;5.57;;;8.70;99.90;;;;;;5093999;28;20447;-67
2022/11/07 02:08:20;;;;;;;10.10;6.10;;;8.70;99.90;;;;;;5102688;28;20454;-67
2022/11/07 02:10:48;;;;;;;10.83;6.60;;;8.70;99.90;;;;;;5092645;28;20460;-68
2022/11/07 02:13:21;;;;;;;9.60;6.30;;;8.60;99.90;;;;;;5093894;28;20472;-68
2022/11/07 02:15:48;;;;;;;11.63;6.57;;;8.60;99.90;;;;;;5093853;28;20478;-68
2022/11/07 02:18:15;;;;;;;8.03;6.83;;;8.60;99.90;;;;;;5101454;28;20462;-67
2022/11/07 02:20:41;;;;;;;10.10;6.60;;;8.50;99.90;;;;;;5096462;28;20460;-68
2022/11/07 02:23:16;;;;;;;10.53;6.30;;;8.50;99.90;;;;;;5093982;28;20470;-68
2022/11/07 02:25:44;;;;;;;12.90;7.43;;;8.50;99.90;;;;;;5093702;28;20816;-67
2022/11/07 02:28:13;;;;;;;9.23;7.40;;;8.50;99.90;;;;;;5094778;28;20503;-67
2022/11/07 02:30:40;;;;;;;11.10;6.80;;;8.40;99.90;;;;;;5093127;28;20454;-68
2022/11/07 02:33:16;;;;;;;14.40;8.70;;;8.40;99.90;;;;;;5095140;28;20484;-67
2022/11/07 02:35:44;;;;;;;17.47;8.43;;;8.30;99.90;;;;;;5097198;28;20565;-68
2022/11/07 02:38:16;;;;;;;14.40;8.53;;;8.30;99.90;;;;;;5113513;28;20456;-68
2022/11/07 02:40:47;;;;;;;12.10;8.10;;;8.30;99.90;;;;;;5101128;28;20481;-67
2022/11/07 02:43:16;;;;;;;19.07;8.50;;;8.30;99.90;;;;;;5112728;28;20497;-68
2022/11/07 02:45:46;;;;;;;14.00;8.37;;;8.30;99.90;;;;;;5103906;28;20839;-68
2022/11/07 02:48:13;;;;;;;14.53;8.10;;;8.30;99.90;;;;;;5113791;28;20443;-68
2022/11/07 02:50:40;;;;;;;17.10;9.00;;;8.30;99.90;;;;;;5104370;28;20937;-68
2022/11/07 02:53:06;;;;;;;14.57;9.00;;;8.30;99.90;;;;;;5092972;28;20468;-68
2022/11/07 02:55:33;;;;;;;15.43;8.63;;;8.20;99.90;;;;;;5092544;28;20958;-68
2022/11/07 02:58:01;;;;;;;15.87;7.20;;;8.20;99.90;;;;;;5105990;28;20504;-68
2022/11/07 03:00:28;;;;;;;18.40;8.50;;;8.20;99.90;;;;;;5104681;28;20817;-68
2022/11/07 03:02:55;;;;;;;13.80;8.63;;;8.20;99.90;;;;;;5092879;28;20480;-67
2022/11/07 03:05:22;;;;;;;12.87;8.67;;;8.20;99.90;;;;;;5093787;28;20451;-67
2022/11/07 03:07:49;;;;;;;17.47;7.90;;;8.20;99.90;;;;;;5103743;28;20447;-67
2022/11/07 03:10:17;;;;;;;12.83;7.90;;;8.10;99.90;;;;;;5112394;28;20486;-67
2022/11/07 03:12:44;;;;;;;17.27;8.23;;;8.10;99.90;;;;;;5092748;28;20499;-68
2022/11/07 03:15:12;;;;;;;19.10;7.47;;;8.10;99.90;;;;;;5092692;28;20795;-68
2022/11/07 03:17:39;;;;;;;14.80;8.80;;;8.10;99.90;;;;;;5092009;28;20542;-68
2022/11/07 03:20:08;;;;;;;11.00;7.60;;;8.10;99.90;;;;;;5092540;28;20458;-67
2022/11/07 03:22:34;;;;;;;13.10;8.50;;;8.10;99.90;;;;;;5092482;28;20473;-68
2022/11/07 03:25:01;;;;;;;15.93;8.53;;;8.10;99.90;;;;;;5092682;28;20451;-68
2022/11/07 03:27:28;;;;;;;16.17;9.13;;;8.10;99.90;;;;;;5093431;28;20444;-67
2022/11/07 03:29:54;;;;;;;16.60;8.47;;;8.20;99.90;;;;;;5093530;28;20447;-67
2022/11/07 03:32:22;;;;;;;17.07;8.27;;;8.20;99.90;;;;;;5105257;28;20466;-67
2022/11/07 03:34:49;;;;;;;15.33;8.00;;;8.20;99.90;;;;;;5112886;28;20818;-68
2022/11/07 03:37:17;;;;;;;16.40;7.90;;;8.30;99.90;;;;;;5098812;28;20480;-67
2022/11/07 03:39:43;;;;;;;15.27;7.70;;;8.30;99.90;;;;;;5110357;28;20809;-68
2022/11/07 03:42:10;;;;;;;11.83;8.03;;;8.40;99.90;;;;;;5101724;28;20478;-67
2022/11/07 03:44:37;;;;;;;13.23;7.50;;;8.40;99.90;;;;;;5092369;28;20452;-67
2022/11/07 03:47:03;;;;;;;11.93;7.83;;;8.40;99.90;;;;;;5091966;28;20457;-68
2022/11/07 03:49:31;;;;;;;10.07;7.50;;;8.40;99.90;;;;;;5105745;28;20526;-68
2022/11/07 03:51:58;;;;;;;14.30;7.50;;;8.50;99.90;;;;;;5106270;28;20859;-67
2022/11/07 03:54:25;;;;;;;10.60;6.90;;;8.50;99.90;;;;;;5092112;28;20462;-68
2022/11/07 03:56:52;;;;;;;9.67;7.40;;;8.50;99.90;;;;;;5100613;28;20489;-67
2022/11/07 03:59:19;;;;;;;16.83;7.67;;;8.50;99.90;;;;;;5106137;28;20450;-68
2022/11/07 04:01:45;;;;;;;12.03;7.30;;;8.60;99.90;;;;;;5110264;28;20559;-68
2022/11/07 04:04:12;;;;;;;12.40;8.20;;;8.60;99.90;;;;;;5091866;28;20450;-68
2022/11/07 04:06:40;;;;;;;12.97;7.47;;;8.60;99.90;;;;;;5101649;28;20477;-68
2022/11/07 04:09:07;;;;;;;10.60;7.67;;;8.60;99.90;;;;;;5091855;28;20459;-68
2022/11/07 04:17:20;;;;;;;16.27;7.30;;;8.60;99.90;;;;;;5094060;28;20488;-68
2022/11/07 04:19:47;;;;;;;13.50;8.00;;;8.60;99.90;;;;;;5112214;28;20458;-68
2022/11/07 04:22:16;;;;;;;11.03;7.67;;;8.60;99.90;;;;;;5100566;28;20471;-68
2022/11/07 04:24:44;;;;;;;13.30;7.10;;;8.60;99.90;;;;;;5091657;28;20457;-68
2022/11/07 04:29:55;;;;;;;14.20;8.30;;;8.70;99.90;;;;;;5091539;28;20537;-68
2022/11/07 04:32:22;;;;;;;12.47;7.90;;;8.70;99.90;;;;;;5106102;28;20511;-68
2022/11/07 04:34:48;;;;;;;16.93;9.03;;;8.70;99.90;;;;;;5094322;28;20451;-68
2022/11/07 04:37:17;;;;;;;21.00;9.47;;;8.70;99.90;;;;;;5105954;28;20486;-67
2022/11/07 04:39:43;;;;;;;12.23;8.53;;;8.80;99.90;;;;;;5095991;28;20458;-68
2022/11/07 04:42:10;;;;;;;12.77;8.30;;;8.80;99.90;;;;;;5091309;28;20482;-67
2022/11/07 04:44:37;;;;;;;15.03;8.50;;;8.80;99.90;;;;;;5096463;28;20443;-68
2022/11/07 04:47:03;;;;;;;10.70;8.03;;;8.90;99.90;;;;;;5099109;28;20448;-68
2022/11/07 04:49:30;;;;;;;12.53;8.20;;;8.80;99.90;;;;;;5091507;28;20450;-68
2022/11/07 04:51:57;;;;;;;12.67;8.27;;;8.90;99.90;;;;;;5091361;28;20447;-67
2022/11/07 04:54:25;;;;;;;12.73;9.60;;;8.90;99.90;;;;;;5091207;28;20466;-68
2022/11/07 04:56:52;;;;;;;10.10;8.47;;;8.90;99.90;;;;;;5091821;28;20486;-68
2022/11/07 04:59:18;;;;;;;13.73;8.10;;;8.90;99.90;;;;;;5091260;28;20950;-68
2022/11/07 05:01:45;;;;;;;16.60;9.40;;;8.90;99.90;;;;;;5091062;28;20879;-67
2022/11/07 05:04:11;;;;;;;15.90;9.07;;;8.90;99.90;;;;;;5091027;28;20452;-68
2022/11/07 05:06:38;;;;;;;16.33;9.77;;;8.90;99.90;;;;;;5099445;28;20457;-67
2022/11/07 05:09:05;;;;;;;16.63;8.27;;;8.90;99.90;;;;;;5108653;28;20504;-67
2022/11/07 05:11:33;;;;;;;11.60;8.73;;;8.90;99.90;;;;;;5097096;28;20453;-68
2022/11/07 05:14:00;;;;;;;12.10;8.73;;;8.90;99.90;;;;;;5102107;28;20470;-68
2022/11/07 05:16:29;;;;;;;10.83;9.20;;;8.90;99.90;;;;;;5089273;28;20495;-68
2022/11/07 05:18:56;;;;;;;15.47;9.50;;;8.80;99.90;;;;;;5091336;28;20522;-68
2022/11/07 05:21:23;;;;;;;14.50;8.70;;;8.80;99.90;;;;;;5090643;28;20447;-68
2022/11/07 05:23:49;;;;;;;15.60;9.43;;;8.80;99.90;;;;;;5090943;28;20524;-68
2022/11/07 05:26:16;;;;;;;14.07;9.77;;;8.80;99.90;;;;;;5095641;28;20511;-68
2022/11/07 05:28:44;;;;;;;11.50;8.67;;;8.80;99.90;;;;;;5113606;28;20450;-68
2022/11/07 05:31:15;;;;;;;19.73;8.70;;;8.70;99.90;;;;;;5103752;28;20458;-68
2022/11/07 05:33:42;;;;;;;22.47;9.00;;;8.80;99.90;;;;;;5094652;28;20515;-70
2022/11/07 05:36:11;;;;;;;13.63;9.20;;;8.80;99.90;;;;;;5094359;28;20451;-68
2022/11/07 05:38:40;;;;;;;12.83;9.77;;;8.70;99.90;;;;;;5093664;28;20454;-68
2022/11/07 05:41:07;;;;;;;15.00;9.20;;;8.80;99.90;;;;;;5094261;28;20484;-68
2022/11/07 05:43:33;;;;;;;13.40;9.07;;;8.80;99.90;;;;;;5094612;28;20471;-69
2022/11/07 05:46:01;;;;;;;15.20;8.90;;;8.80;99.90;;;;;;5094198;28;20869;-69
2022/11/07 05:48:29;;;;;;;15.30;9.00;;;8.80;99.90;;;;;;5106855;28;20446;-68
2022/11/07 05:50:56;;;;;;;14.10;8.57;;;8.80;99.90;;;;;;5114428;27;20450;-69
2022/11/07 05:53:24;;;;;;;15.83;8.70;;;8.80;99.90;;;;;;5095724;28;20475;-68
2022/11/07 05:55:51;;;;;;;18.03;8.73;;;8.70;99.90;;;;;;5094104;28;20540;-68
2022/11/07 05:58:18;;;;;;;19.50;8.60;;;8.70;99.90;;;;;;5093999;28;20859;-68
2022/11/07 06:00:45;;;;;;;17.40;8.60;;;8.70;99.90;;;;;;5095093;28;20522;-67
2022/11/07 06:03:13;;;;;;;12.40;8.50;;;8.80;99.90;;;;;;5102430;28;20479;-67
2022/11/07 06:05:41;;;;;;;19.43;8.43;;;8.80;99.90;;;;;;5093825;28;20471;-68
2022/11/07 06:08:10;;;;;;;17.80;8.63;;;8.80;99.90;;;;;;5105594;28;20443;-68
2022/11/07 06:10:37;;;;;;;15.83;9.43;;;8.80;99.90;;;;;;5110454;28;20435;-68
2022/11/07 06:13:06;;;;;;;15.77;8.17;;;8.80;99.90;;;;;;5093355;28;20482;-67
2022/11/07 06:15:35;;;;;;;13.57;7.97;;;8.80;99.90;;;;;;5094029;28;20459;-67
2022/11/07 06:18:03;;;;;;;12.03;7.83;;;8.80;99.90;;;;;;5110237;28;20482;-67
2022/11/07 06:20:33;;;;;;;12.50;8.13;;;8.80;99.90;;;;;;5073712;28;20448;-67
2022/11/07 06:23:00;;;;;;;18.30;8.33;;;8.80;99.90;;;;;;5083161;28;20840;-67
2022/11/07 06:25:27;;;;;;;21.93;9.67;;;8.80;99.90;;;;;;5093744;28;20458;-68
2022/11/07 06:27:58;;;;;;;10.83;7.10;;;8.80;99.90;;;;;;5093389;28;20960;-68
2022/11/07 06:30:25;;;;;;;9.97;7.10;;;8.80;99.90;;;;;;5104096;28;21318;-66
2022/11/07 06:32:51;;;;;;;11.67;7.37;;;8.90;99.90;;;;;;5089666;28;20471;-66
2022/11/07 06:35:18;;;;;;;14.30;7.40;;;8.90;99.90;;;;;;5088950;28;20447;-66
2022/11/07 06:37:46;;;;;;;14.80;7.00;;;8.90;99.90;;;;;;5089613;28;20537;-66
2022/11/07 06:40:13;;;;;;;14.20;6.37;;;8.90;99.90;;;;;;5088422;28;20513;-66
2022/11/07 06:42:39;;;;;;;11.53;7.83;;;9.00;99.90;;;;;;5088018;28;21173;-68
2022/11/07 06:45:07;;;;;;;12.13;6.63;;;9.00;99.90;;;;;;5089206;28;20459;-67
2022/11/07 06:47:34;;;;;;;12.13;7.07;;;9.10;99.90;;;;;;5089557;28;20522;-66
2022/11/07 06:50:00;;;;;;;14.00;6.57;;;9.10;99.90;;;;;;5088572;28;20497;-67
2022/11/07 06:52:28;;;;;;;9.10;7.13;;;9.10;99.90;;;;;;5088899;28;20858;-67
2022/11/07 06:54:56;;;;;;;11.00;7.70;;;9.20;99.90;;;;;;5089001;28;20460;-67
2022/11/07 06:57:22;;;;;;;12.33;7.43;;;9.20;99.90;;;;;;5086576;28;20478;-66
2022/11/07 06:59:49;;;;;;;14.03;8.27;;;9.30;99.90;;;;;;5088189;28;20450;-66
2022/11/07 07:02:16;;;;;;;11.03;7.27;;;9.30;99.90;;;;;;5086829;28;20479;-66
2022/11/07 07:04:42;;;;;;;8.23;7.37;;;9.30;99.90;;;;;;5086671;28;21960;-66
2022/11/07 07:07:09;;;;;;;8.87;7.07;;;9.30;99.90;;;;;;5086245;28;21028;-66
2022/11/07 07:09:36;;;;;;;9.33;6.10;;;9.40;99.90;;;;;;5088156;28;20452;-66
2022/11/07 07:12:04;;;;;;;10.23;5.83;;;9.40;99.90;;;;;;5087030;28;20463;-66
2022/11/07 07:14:31;;;;;;;10.70;5.97;;;9.50;99.90;;;;;;5088692;28;20861;-66
2022/11/07 07:16:58;;;;;;;14.57;6.93;;;9.60;99.90;;;;;;5088489;28;20479;-66
2022/11/07 07:19:25;;;;;;;10.10;6.07;;;9.70;99.90;;;;;;5088660;28;20467;-66
2022/11/07 07:21:51;;;;;;;13.77;5.83;;;9.80;99.90;;;;;;5088554;28;20838;-66
2022/11/07 07:24:18;;;;;;;9.13;5.80;;;9.90;99.90;;;;;;5087321;28;20444;-66
2022/11/07 07:26:45;;;;;;;8.10;5.50;;;10.00;99.90;;;;;;5088314;28;20869;-66
2022/11/07 07:29:13;;;;;;;11.10;5.87;;;10.00;99.90;;;;;;5088219;28;20447;-67
2022/11/07 07:31:40;;;;;;;13.87;5.40;;;10.10;99.90;;;;;;5087844;28;20457;-66
2022/11/07 07:34:06;;;;;;;9.93;5.20;;;10.10;99.90;;;;;;5088496;28;20967;-67
2022/11/07 07:36:33;;;;;;;15.67;6.53;;;10.20;99.90;;;;;;5088164;28;20458;-66
2022/11/07 07:39:00;;;;;;;6.80;4.87;;;10.20;99.90;;;;;;5088336;28;20490;-67
2022/11/07 07:41:26;;;;;;;13.00;5.93;;;10.30;99.90;;;;;;5088389;28;20439;-65
2022/11/07 07:43:53;;;;;;;11.63;5.80;;;10.30;99.90;;;;;;5087516;28;20472;-67
2022/11/07 07:46:23;;;;;;;9.53;5.60;;;10.40;99.90;;;;;;5088288;28;20462;-67
2022/11/07 07:48:49;;;;;;;10.53;5.53;;;10.50;99.90;;;;;;5087520;28;20542;-67
2022/11/07 07:51:16;;;;;;;25.07;5.57;;;10.60;99.90;;;;;;5086328;28;20508;-67
2022/11/07 07:53:43;;;;;;;10.03;4.90;;;10.60;99.90;;;;;;5088332;28;20471;-67
2022/11/07 07:56:09;;;;;;;10.30;5.00;;;10.60;99.90;;;;;;5085255;28;20470;-66
2022/11/07 07:58:36;;;;;;;22.50;5.00;;;10.70;99.90;;;;;;5088236;28;20574;-66
2022/11/07 08:01:08;;;;;;;9.43;5.50;;;10.90;99.90;;;;;;5087675;28;20444;-67
2022/11/07 08:03:37;;;;;;;13.07;4.47;;;10.90;99.90;;;;;;5087076;28;20459;-66
2022/11/07 08:06:05;;;;;;;10.60;4.30;;;10.90;99.90;;;;;;5088611;28;20486;-66
2022/11/07 08:08:32;;;;;;;10.70;4.83;;;11.00;99.90;;;;;;5088093;28;20470;-67
2022/11/07 08:11:01;;;;;;;8.80;3.93;;;11.00;99.90;;;;;;5088059;28;20454;-68
2022/11/07 08:13:28;;;;;;;8.83;4.43;;;11.10;99.90;;;;;;5087833;28;20467;-67
2022/11/07 08:15:54;;;;;;;10.53;4.13;;;11.10;99.90;;;;;;5088046;28;20460;-67
2022/11/07 08:18:22;;;;;;;6.47;4.00;;;11.10;99.90;;;;;;5087065;28;20494;-68
2022/11/07 08:20:52;;;;;;;11.50;4.40;;;11.20;99.90;;;;;;5087566;28;21020;-68
2022/11/07 08:23:19;;;;;;;5.50;3.90;;;11.20;99.90;;;;;;5087382;28;20463;-64
2022/11/07 08:25:50;;;;;;;15.80;4.30;;;11.20;99.90;;;;;;5087920;28;20455;-67
2022/11/07 08:28:18;;;;;;;6.13;3.77;;;11.30;99.90;;;;;;5087546;28;20540;-68
2022/11/07 08:30:45;;;;;;;8.33;4.13;;;11.30;99.90;;;;;;5086886;28;20447;-67
2022/11/07 08:33:11;;;;;;;13.23;4.40;;;11.30;99.90;;;;;;5087326;28;20474;-68
2022/11/07 08:35:38;;;;;;;10.60;4.13;;;11.40;99.90;;;;;;5087906;28;21649;-67
2022/11/07 08:38:06;;;;;;;6.03;3.70;;;11.40;99.90;;;;;;5088166;28;20478;-67
2022/11/07 08:40:33;;;;;;;10.67;4.13;;;11.40;99.90;;;;;;5087750;28;20444;-67
2022/11/07 08:43:00;;;;;;;12.30;4.20;;;11.40;99.90;;;;;;5087445;28;20470;-68
2022/11/07 08:45:27;;;;;;;14.73;5.23;;;11.40;99.90;;;;;;5086850;28;20474;-67
2022/11/07 08:47:57;;;;;;;8.00;3.80;;;11.40;99.90;;;;;;5087577;28;20537;-67
2022/11/07 08:50:24;;;;;;;6.93;3.27;;;11.50;99.90;;;;;;5085916;28;20554;-68
2022/11/07 08:52:51;;;;;;;4.27;3.40;;;11.50;99.90;;;;;;5087094;28;21567;-67
2022/11/07 08:55:19;;;;;;;7.93;3.90;;;11.50;99.90;;;;;;5086715;28;20497;-65
2022/11/07 08:57:45;;;;;;;7.00;3.53;;;11.50;99.90;;;;;;5083797;28;20934;-66
2022/11/07 09:00:13;;;;;;;12.10;3.73;;;11.50;99.90;;;;;;5083882;28;20443;-69
2022/11/07 09:02:39;;;;;;;9.10;4.20;;;11.50;99.90;;;;;;5087293;28;20475;-68
2022/11/07 09:05:07;;;;;;;15.07;3.80;;;11.50;99.90;;;;;;5089307;28;20455;-69
2022/11/07 09:07:37;;;;;;;14.73;3.97;;;11.50;99.90;;;;;;5090139;28;21240;-69
2022/11/07 09:10:04;;;;;;;15.07;3.80;;;11.50;99.90;;;;;;5090250;28;20454;-67
2022/11/07 09:12:32;;;;;;;9.67;3.77;;;11.60;99.90;;;;;;5090473;28;20466;-67
2022/11/07 09:14:58;;;;;;;6.20;3.87;;;11.60;99.90;;;;;;5090394;28;20456;-68
2022/11/07 09:17:25;;;;;;;9.57;3.70;;;11.70;99.90;;;;;;5090806;28;20455;-67
2022/11/07 09:19:52;;;;;;;9.93;3.70;;;11.70;99.90;;;;;;5090939;28;20865;-67
2022/11/07 09:22:18;;;;;;;8.63;3.33;;;11.70;99.90;;;;;;5090440;28;20462;-67
2022/11/07 09:24:45;;;;;;;10.90;3.70;;;11.80;99.90;;;;;;5091646;28;20459;-67
2022/11/07 09:27:12;;;;;;;9.70;3.63;;;11.90;99.90;;;;;;5091231;28;20455;-67
2022/11/07 09:29:40;;;;;;;8.30;3.50;;;11.90;99.90;;;;;;5091250;28;20450;-66
2022/11/07 09:32:06;;;;;;;11.57;3.80;;;12.10;99.90;;;;;;5090832;28;20470;-67
2022/11/07 09:34:33;;;;;;;6.30;3.07;;;12.10;99.90;;;;;;5090517;28;20451;-67
2022/11/07 09:37:01;;;;;;;8.20;3.57;;;12.20;99.90;;;;;;5091082;28;20453;-66
2022/11/07 09:39:28;;;;;;;12.13;3.23;;;12.20;99.90;;;;;;5090769;28;20853;-67
2022/11/07 09:41:59;;;;;;;8.77;3.13;;;12.30;99.90;;;;;;5090700;28;20440;-67
2022/11/07 09:44:43;;;;;;;11.10;3.10;;;12.30;99.90;;;;;;5090643;28;20838;-67
2022/11/07 09:47:21;;;;;;;8.07;3.20;;;12.30;99.90;;;;;;5090716;28;20456;-67
2022/11/07 09:49:51;;;;;;;8.93;2.70;;;12.40;99.90;;;;;;5090511;28;20453;-67
2022/11/07 09:52:25;;;;;;;12.50;3.90;;;12.40;99.90;;;;;;5089894;28;20495;-67
2022/11/07 09:54:58;;;;;;;11.23;3.27;;;12.50;99.90;;;;;;5090230;28;20518;-67
2022/11/07 09:57:26;;;;;;;9.37;3.10;;;12.60;99.90;;;;;;5089713;28;20443;-66
2022/11/07 09:59:58;;;;;;;7.77;3.30;;;12.70;99.90;;;;;;5090707;28;20475;-67
2022/11/07 10:02:29;;;;;;;8.53;3.23;;;12.90;99.90;;;;;;5090131;28;20488;-67
2022/11/07 10:04:57;;;;;;;6.30;2.37;;;12.90;99.90;;;;;;5090459;28;20455;-68
2022/11/07 10:07:34;;;;;;;4.30;2.73;;;13.00;99.90;;;;;;5090092;28;20458;-67
2022/11/07 10:10:06;;;;;;;6.67;2.90;;;13.10;99.90;;;;;;5090152;28;20463;-67
2022/11/07 10:12:51;;;;;;;6.80;3.10;;;13.20;99.90;;;;;;5090064;28;20477;-67
2022/11/07 10:15:25;;;;;;;9.23;3.57;;;13.30;99.90;;;;;;5089325;28;20536;-67
2022/11/07 10:17:59;;;;;;;13.07;3.00;;;13.20;99.90;;;;;;5090157;28;20478;-67
2022/11/07 10:20:39;;;;;;;9.07;2.97;;;13.10;99.90;;;;;;5089671;28;20451;-66
2022/11/07 10:23:25;;;;;;;8.00;2.80;;;13.00;99.90;;;;;;5090162;28;20466;-66
2022/11/07 10:25:58;;;;;;;9.80;3.60;;;13.00;99.90;;;;;;5089386;28;20949;-65
2022/11/07 10:28:26;;;;;;;8.57;2.73;;;13.00;99.90;;;;;;5089783;28;20443;-66
2022/11/07 10:30:57;;;;;;;10.83;3.30;;;12.90;99.90;;;;;;5089268;28;20490;-66
2022/11/07 10:33:36;;;;;;;5.90;3.20;;;12.90;99.90;;;;;;5089537;28;20482;-66
2022/11/07 10:36:11;;;;;;;4.93;2.83;;;12.90;99.90;;;;;;5089431;28;20452;-66
2022/11/07 10:38:41;;;;;;;5.70;2.90;;;12.90;99.90;;;;;;5089368;28;20885;-66
2022/11/07 10:41:14;;;;;;;10.27;3.33;;;12.90;99.90;;;;;;5089831;28;20451;-66
2022/11/07 10:43:43;;;;;;;6.10;2.90;;;12.90;99.90;;;;;;5089756;28;21083;-65
2022/11/07 10:46:17;;;;;;;10.90;3.57;;;13.00;99.90;;;;;;5089379;28;20472;-66
2022/11/07 10:48:55;;;;;;;5.40;2.90;;;13.00;99.90;;;;;;5089697;28;20450;-66
2022/11/07 10:51:33;;;;;;;4.50;2.80;;;13.00;99.90;;;;;;5089391;28;20501;-65
2022/11/07 10:54:00;;;;;;;4.57;2.87;;;13.00;99.90;;;;;;5089717;28;20463;-65
2022/11/07 10:56:26;;;;;;;7.40;2.83;;;13.00;99.90;;;;;;5089389;28;21013;-66
2022/11/07 10:58:53;;;;;;;8.97;2.80;;;13.00;99.90;;;;;;5088558;28;20479;-66
2022/11/07 11:01:25;;;;;;;9.80;2.80;;;13.00;99.90;;;;;;5088780;28;20443;-66
2022/11/07 11:03:52;;;;;;;4.20;2.63;;;13.00;99.90;;;;;;5089249;28;20459;-65
2022/11/07 11:06:30;;;;;;;7.00;2.93;;;13.00;99.90;;;;;;5089153;28;20450;-65
2022/11/07 11:08:58;;;;;;;4.60;2.70;;;13.10;99.90;;;;;;5089096;28;20480;-66
2022/11/07 11:11:29;;;;;;;6.30;2.67;;;13.20;99.90;;;;;;5088832;28;20457;-67
2022/11/07 11:14:05;;;;;;;8.70;2.97;;;13.40;99.90;;;;;;5088668;28;20506;-66
2022/11/07 11:16:37;;;;;;;7.90;3.67;;;13.50;99.90;;;;;;5089657;28;20447;-67
2022/11/07 11:19:05;;;;;;;9.20;2.90;;;13.80;99.90;;;;;;5088807;28;20561;-65
2022/11/07 11:21:44;;;;;;;3.93;2.43;;;14.10;99.90;;;;;;5088401;28;20536;-66
2022/11/07 11:24:21;;;;;;;5.90;2.93;;;14.40;99.90;;;;;;5087220;28;20497;-66
2022/11/07 11:26:50;;;;;;;4.60;2.07;;;14.80;99.90;;;;;;5088501;28;20442;-67
2022/11/07 11:29:29;;;;;;;3.90;2.37;;;15.00;99.90;;;;;;5089002;28;20451;-67
2022/11/07 11:31:59;;;;;;;5.27;2.33;;;15.10;99.90;;;;;;5088393;28;20458;-66
2022/11/07 11:34:33;;;;;;;12.00;3.00;;;14.90;99.90;;;;;;5087827;28;20451;-67
2022/11/07 11:37:06;;;;;;;4.90;2.70;;;14.50;99.90;;;;;;5089020;28;20446;-68
2022/11/07 11:39:40;;;;;;;6.43;2.33;;;14.20;99.90;;;;;;5088724;28;20527;-67
2022/11/07 11:42:19;;;;;;;6.37;2.50;;;14.10;99.90;;;;;;5088606;28;20477;-67
2022/11/07 11:44:46;;;;;;;6.50;2.50;;;14.20;99.90;;;;;;5088432;28;20522;-65
2022/11/07 11:47:21;;;;;;;13.30;3.73;;;14.40;99.90;;;;;;5088670;28;20504;-67
2022/11/07 11:49:52;;;;;;;8.43;2.43;;;14.60;99.90;;;;;;5088865;28;20512;-66
2022/11/07 11:52:21;;;;;;;6.23;2.77;;;14.90;99.90;;;;;;5088169;28;20482;-67
2022/11/07 11:54:50;;;;;;;3.60;2.17;;;15.00;99.90;;;;;;5088158;28;20831;-67
2022/11/07 11:57:21;;;;;;;6.63;2.47;;;15.20;99.90;;;;;;5087140;28;20448;-66
2022/11/07 12:00:04;;;;;;;3.63;2.30;;;15.10;99.90;;;;;;5088119;28;20632;-66
2022/11/07 12:02:50;;;;;;;8.27;2.43;;;15.20;99.90;;;;;;5088019;28;20475;-66
2022/11/07 12:05:39;;;;;;;3.00;2.30;;;15.00;99.90;;;;;;5088230;28;20451;-68
2022/11/07 12:08:20;;;;;;;5.87;3.10;;;15.00;99.90;;;;;;5088020;28;20448;-66
2022/11/07 12:10:53;;;;;;;4.83;2.50;;;15.10;99.90;;;;;;5087947;28;20459;-67
2022/11/07 12:13:29;;;;;;;18.70;2.47;;;15.30;99.90;;;;;;5088016;28;20444;-66
2022/11/07 12:16:07;;;;;;;9.80;2.93;;;15.50;99.90;;;;;;5087478;28;20443;-67
2022/11/07 12:18:40;;;;;;;4.33;2.40;;;15.70;99.90;;;;;;5088338;28;20827;-67
2022/11/07 12:21:19;;;;;;;6.60;3.03;;;15.80;99.90;;;;;;5088029;28;20467;-67
2022/11/07 12:23:59;;;;;;;8.80;2.40;;;15.70;99.90;;;;;;5086190;28;20989;-68
2022/11/07 12:26:30;;;;;;;11.30;2.57;;;15.60;99.90;;;;;;5087188;28;20201;-68
2022/11/07 12:29:03;;;;;;;11.70;2.70;;;15.70;99.90;;;;;;5087908;28;20997;-68
2022/11/07 12:31:43;;;;;;;8.37;2.50;;;15.50;99.90;;;;;;5087469;28;20456;-67
2022/11/07 12:34:22;;;;;;;10.93;2.90;;;15.30;99.90;;;;;;5087498;28;21007;-68
2022/11/07 12:37:04;;;;;;;7.03;2.50;;;15.50;99.90;;;;;;5088115;28;20450;-67
2022/11/07 12:39:46;;;;;;;6.17;2.80;;;15.50;99.90;;;;;;5091866;28;21017;-68
2022/11/07 12:42:23;;;;;;;12.00;2.80;;;15.60;99.90;;;;;;5091281;28;21203;-68
2022/11/07 12:45:01;;;;;;;6.60;3.03;;;15.70;99.90;;;;;;5091686;28;20439;-67
2022/11/07 12:47:44;;;;;;;7.10;2.93;;;15.60;99.90;;;;;;5091797;28;20440;-68
2022/11/07 12:50:25;;;;;;;8.60;3.17;;;15.30;99.90;;;;;;5092079;28;20447;-68
2022/11/07 12:53:09;;;;;;;8.83;3.30;;;15.10;99.90;;;;;;5091739;28;20463;-68
2022/11/07 12:55:41;;;;;;;6.37;2.50;;;15.00;99.90;;;;;;5091923;28;20458;-67
2022/11/07 12:58:16;;;;;;;9.13;2.80;;;15.00;99.90;;;;;;5090771;28;20966;-67
2022/11/07 13:00:44;;;;;;;8.27;3.07;;;15.00;99.90;;;;;;5091226;28;20954;-68
2022/11/07 13:03:32;;;;;;;11.60;3.53;;;15.00;99.90;;;;;;5091635;28;20550;-68
2022/11/07 13:06:12;;;;;;;7.97;2.50;;;15.30;99.90;;;;;;5091572;28;20451;-68
2022/11/07 13:08:45;;;;;;;6.60;2.90;;;15.20;99.90;;;;;;5091440;28;20954;-67
2022/11/07 13:11:17;;;;;;;6.97;2.73;;;15.20;99.90;;;;;;5090794;28;20451;-67
2022/11/07 13:13:55;;;;;;;9.23;3.10;;;15.10;99.90;;;;;;5091307;28;20982;-67